Terminal Aerodrome Forecast
Issued by NWS Cleveland, OH

Home | Current Version | Previous Version | Text Only | Print | Product List | Glossary On
Versions: 1 2 3 4 5 6 7 8 9 10 11 12 13 14 15
000
FTUS41 KCLE 121700
TAFMFD
TAF
KMFD 121730Z 1218/1318 20008KT P6SM SCT050 OVC200
     FM131000 21010KT P6SM VCTS SCT025 OVC035CB
      TEMPO 1311/1314 3SM TSRA BR SCT015 OVC025CB
     FM131500 23012G20KT P6SM BKN035 OVC100=

USA.gov is the U.S. government's official web portal to all federal, state and local government web resources and services.